Svartfoss — V2PR3 — position and weather

sailwx.info

Track history (hours):
 
Tides and Currents Weather Stations Pressure Air Temp Water Temp Dewpoint Dewpoint Depression Visibility Wind Speed Wind Dir Waves Ship Positions

Svartfoss

Last reported at 2015-Jan-27 07:33 UTC. Time now 2015-Jan-27 08:28 UTC.
Position N 52°28' E 004°40'.

Length 80 m; draft 5.5 m.

Type: Cargo ship. MMSI: 304882000.

Date/timePositionNaut miles runAvg speedWind from/ knotsBaromVisibWave heightAir tempDewpointWater temp
2015-Jan-27 07:33N 52°28' E 004°40'0 0.0
2015-Jan-27 06:33N 52°28' E 004°40'0 0.0
2015-Jan-27 05:33N 52°28' E 004°40'0 0.0
2015-Jan-27 04:33N 52°28' E 004°40'0 0.0
2015-Jan-27 03:33N 52°28' E 004°40'0 0.0
2015-Jan-27 02:33N 52°28' E 004°40'0 0.0
2015-Jan-27 01:33N 52°28' E 004°40'0 0.0
2015-Jan-27 00:33N 52°28' E 004°40'0 0.0
2015-Jan-26 23:33N 52°28' E 004°40'0 0.0
2015-Jan-26 22:30N 52°28' E 004°40'0 0.0
2015-Jan-26 21:33N 52°28' E 004°40'0 0.0
2015-Jan-26 20:33N 52°28' E 004°40'0 0.0
2015-Jan-26 19:27N 52°28' E 004°40'0 0.0
2015-Jan-26 18:30N 52°28' E 004°40'0 0.0
2015-Jan-26 17:30N 52°28' E 004°40'0 0.0
2015-Jan-26 16:33N 52°28' E 004°40'0 0.0
2015-Jan-26 15:33N 52°28' E 004°40'0 0.0
2015-Jan-26 14:33N 52°28' E 004°40'0 0.0
2015-Jan-26 13:30N 52°28' E 004°40'0 0.0
2015-Jan-26 12:33N 52°28' E 004°40'0 0.0
2015-Jan-26 11:33N 52°28' E 004°40'0 0.0
2015-Jan-26 10:33N 52°28' E 004°40'0 0.0
2015-Jan-26 09:33N 52°28' E 004°40'0 0.0
2015-Jan-26 08:30N 52°28' E 004°40'0 0.0
2015-Jan-26 07:30N 52°28' E 004°40'0 0.0
2015-Jan-26 06:30N 52°28' E 004°40'0 0.0
2015-Jan-26 05:33N 52°28' E 004°40'0 0.0
2015-Jan-26 04:33N 52°28' E 004°40'0 0.0
2015-Jan-26 03:33N 52°28' E 004°40'0 0.0
2015-Jan-26 02:33N 52°28' E 004°40'0 0.0
2015-Jan-26 01:30N 52°28' E 004°40'0 0.0
2015-Jan-26 00:33N 52°28' E 004°40'0 0.0
2015-Jan-25 23:32N 52°28' E 004°40'0 0.0
2015-Jan-25 22:32N 52°28' E 004°40'0 0.0
2015-Jan-25 21:32N 52°28' E 004°40'0 0.0
2015-Jan-25 20:32N 52°28' E 004°40'0 0.0
2015-Jan-25 19:32N 52°28' E 004°40'0 0.0
2015-Jan-25 18:29N 52°28' E 004°40'0 0.0
2015-Jan-25 17:32N 52°28' E 004°40'0 0.0
2015-Jan-25 16:29N 52°28' E 004°40'3 3.0
2015-Jan-25 15:33N 52°28' E 004°35'9 8.7
2015-Jan-25 14:33N 52°36' E 004°30'1616.3
2015-Jan-25 13:33N 52°52' E 004°31'2914.6
2015-Jan-25 11:33N 53°21' E 004°32'1514.6
2015-Jan-25 10:33N 53°36' E 004°39'1514.3
2015-Jan-25 09:29N 53°49' E 004°51'1614.4
2015-Jan-25 08:21N 54°05' E 004°56'28214.1
2015-Jan-24 12:18N 58°47' E 005°17'912.5
2015-Jan-24 11:32N 58°57' E 005°19'1413.2
2015-Jan-24 10:28N 59°11' E 005°20'371 7.3
2015-Jan-22 07:31N 64°46' E 011°01'8 8.4
2015-Jan-22 06:33N 64°52' E 011°14'0 0.0
2015-Jan-22 05:33N 64°52' E 011°14'0 0.0
2015-Jan-22 04:33N 64°52' E 011°14'0 0.0
2015-Jan-22 03:33N 64°52' E 011°14'0 0.0
2015-Jan-22 02:33N 64°52' E 011°14'1010.1
2015-Jan-22 01:33N 64°58' E 011°33'20 9.8
2015-Jan-21 23:33N 65°15' E 011°55'72 8.0
2015-Jan-21 14:30N 66°22' E 012°58'1412.8
2015-Jan-21 13:24N 66°36' E 013°04'2713.3
2015-Jan-21 11:22N 66°60' E 013°37'1114.0
2015-Jan-21 10:33N 67°07' E 013°60'1414.1
2015-Jan-21 09:33N 67°19' E 014°18'1312.8
2015-Jan-21 08:33N 67°32' E 014°20'160 4.8
2015-Jan-19 23:33N 69°36' E 018°53'2 1.7
2015-Jan-19 22:33N 69°38' E 018°57'0 0.0
2015-Jan-19 21:33N 69°38' E 018°57'0 0.0
2015-Jan-19 20:33N 69°38' E 018°57'0 0.0
2015-Jan-19 19:33N 69°38' E 018°57'2 1.6
2015-Jan-19 18:34N 69°39' E 018°59'0 0.4
2015-Jan-19 17:33N 69°39' E 018°58'0 0.0
2015-Jan-19 16:33N 69°39' E 018°58'0 0.0
2015-Jan-19 15:34N 69°39' E 018°58'0 0.0
2015-Jan-19 14:33N 69°39' E 018°58'0 0.2
2015-Jan-19 13:33N 69°39' E 018°59'2 2.3
2015-Jan-19 12:33N 69°41' E 019°02'8414.0
2015-Jan-19 06:33N 70°28' E 022°27'1514.9
2015-Jan-19 05:33N 70°34' E 023°07'1111.2
2015-Jan-19 04:33N 70°38' E 023°39'0 0.0
2015-Jan-19 03:33N 70°38' E 023°39'0 0.0
2015-Jan-19 02:33N 70°38' E 023°39'0 0.0
2015-Jan-19 01:33N 70°38' E 023°39'0 0.0
2015-Jan-19 00:33N 70°38' E 023°39'0 0.0
2015-Jan-18 23:33N 70°38' E 023°39'0 0.0
2015-Jan-18 22:33N 70°38' E 023°39'0 0.4
2015-Jan-18 21:33N 70°38' E 023°40'0 0.0
2015-Jan-18 20:33N 70°38' E 023°40'1 1.5
2015-Jan-18 19:33N 70°39' E 023°38'1 1.0
2015-Jan-18 18:33N 70°40' E 023°40'5 0.1
2015-Jan-17 08:16N 70°45' E 023°38'5 6.8
2015-Jan-17 07:33N 70°40' E 023°40'  
Track history (hours):
 
Tides and Currents Weather Stations Pressure Air Temp Water Temp Dewpoint Dewpoint Depression Visibility Wind Speed Wind Dir Waves Ship Positions

Svartfoss

Last reported at 2015-Jan-27 07:33 UTC. Time now 2015-Jan-27 08:28 UTC.
Position N 52°28' E 004°40'.

Length 80 m; draft 5.5 m.

Type: Cargo ship. MMSI: 304882000.

Date/timePositionNaut miles runAvg speedWind from/ knotsBaromVisibWave heightAir tempDewpointWater temp
2015-Jan-27 07:33N 52°28' E 004°40'0 0.0
2015-Jan-27 06:33N 52°28' E 004°40'0 0.0
2015-Jan-27 05:33N 52°28' E 004°40'0 0.0
2015-Jan-27 04:33N 52°28' E 004°40'0 0.0
2015-Jan-27 03:33N 52°28' E 004°40'0 0.0
2015-Jan-27 02:33N 52°28' E 004°40'0 0.0
2015-Jan-27 01:33N 52°28' E 004°40'0 0.0
2015-Jan-27 00:33N 52°28' E 004°40'0 0.0
2015-Jan-26 23:33N 52°28' E 004°40'0 0.0
2015-Jan-26 22:30N 52°28' E 004°40'0 0.0
2015-Jan-26 21:33N 52°28' E 004°40'0 0.0
2015-Jan-26 20:33N 52°28' E 004°40'0 0.0
2015-Jan-26 19:27N 52°28' E 004°40'0 0.0
2015-Jan-26 18:30N 52°28' E 004°40'0 0.0
2015-Jan-26 17:30N 52°28' E 004°40'0 0.0
2015-Jan-26 16:33N 52°28' E 004°40'0 0.0
2015-Jan-26 15:33N 52°28' E 004°40'0 0.0
2015-Jan-26 14:33N 52°28' E 004°40'0 0.0
2015-Jan-26 13:30N 52°28' E 004°40'0 0.0
2015-Jan-26 12:33N 52°28' E 004°40'0 0.0
2015-Jan-26 11:33N 52°28' E 004°40'0 0.0
2015-Jan-26 10:33N 52°28' E 004°40'0 0.0
2015-Jan-26 09:33N 52°28' E 004°40'0 0.0
2015-Jan-26 08:30N 52°28' E 004°40'0 0.0
2015-Jan-26 07:30N 52°28' E 004°40'0 0.0
2015-Jan-26 06:30N 52°28' E 004°40'0 0.0
2015-Jan-26 05:33N 52°28' E 004°40'0 0.0
2015-Jan-26 04:33N 52°28' E 004°40'0 0.0
2015-Jan-26 03:33N 52°28' E 004°40'0 0.0
2015-Jan-26 02:33N 52°28' E 004°40'0 0.0
2015-Jan-26 01:30N 52°28' E 004°40'0 0.0
2015-Jan-26 00:33N 52°28' E 004°40'0 0.0
2015-Jan-25 23:32N 52°28' E 004°40'0 0.0
2015-Jan-25 22:32N 52°28' E 004°40'0 0.0
2015-Jan-25 21:32N 52°28' E 004°40'0 0.0
2015-Jan-25 20:32N 52°28' E 004°40'0 0.0
2015-Jan-25 19:32N 52°28' E 004°40'0 0.0
2015-Jan-25 18:29N 52°28' E 004°40'0 0.0
2015-Jan-25 17:32N 52°28' E 004°40'0 0.0
2015-Jan-25 16:29N 52°28' E 004°40'3 3.0
2015-Jan-25 15:33N 52°28' E 004°35'9 8.7
2015-Jan-25 14:33N 52°36' E 004°30'1616.3
2015-Jan-25 13:33N 52°52' E 004°31'2914.6
2015-Jan-25 11:33N 53°21' E 004°32'1514.6
2015-Jan-25 10:33N 53°36' E 004°39'1514.3
2015-Jan-25 09:29N 53°49' E 004°51'1614.4
2015-Jan-25 08:21N 54°05' E 004°56'28214.1
2015-Jan-24 12:18N 58°47' E 005°17'912.5
2015-Jan-24 11:32N 58°57' E 005°19'1413.2
2015-Jan-24 10:28N 59°11' E 005°20'371 7.3
2015-Jan-22 07:31N 64°46' E 011°01'8 8.4
2015-Jan-22 06:33N 64°52' E 011°14'0 0.0
2015-Jan-22 05:33N 64°52' E 011°14'0 0.0
2015-Jan-22 04:33N 64°52' E 011°14'0 0.0
2015-Jan-22 03:33N 64°52' E 011°14'0 0.0
2015-Jan-22 02:33N 64°52' E 011°14'1010.1
2015-Jan-22 01:33N 64°58' E 011°33'20 9.8
2015-Jan-21 23:33N 65°15' E 011°55'72 8.0
2015-Jan-21 14:30N 66°22' E 012°58'1412.8
2015-Jan-21 13:24N 66°36' E 013°04'2713.3
2015-Jan-21 11:22N 66°60' E 013°37'1114.0
2015-Jan-21 10:33N 67°07' E 013°60'1414.1
2015-Jan-21 09:33N 67°19' E 014°18'1312.8
2015-Jan-21 08:33N 67°32' E 014°20'160 4.8
2015-Jan-19 23:33N 69°36' E 018°53'2 1.7
2015-Jan-19 22:33N 69°38' E 018°57'0 0.0
2015-Jan-19 21:33N 69°38' E 018°57'0 0.0
2015-Jan-19 20:33N 69°38' E 018°57'0 0.0
2015-Jan-19 19:33N 69°38' E 018°57'2 1.6
2015-Jan-19 18:34N 69°39' E 018°59'0 0.4
2015-Jan-19 17:33N 69°39' E 018°58'0 0.0
2015-Jan-19 16:33N 69°39' E 018°58'0 0.0
2015-Jan-19 15:34N 69°39' E 018°58'0 0.0
2015-Jan-19 14:33N 69°39' E 018°58'0 0.2
2015-Jan-19 13:33N 69°39' E 018°59'2 2.3
2015-Jan-19 12:33N 69°41' E 019°02'8414.0
2015-Jan-19 06:33N 70°28' E 022°27'1514.9
2015-Jan-19 05:33N 70°34' E 023°07'1111.2
2015-Jan-19 04:33N 70°38' E 023°39'0 0.0
2015-Jan-19 03:33N 70°38' E 023°39'0 0.0
2015-Jan-19 02:33N 70°38' E 023°39'0 0.0
2015-Jan-19 01:33N 70°38' E 023°39'0 0.0
2015-Jan-19 00:33N 70°38' E 023°39'0 0.0
2015-Jan-18 23:33N 70°38' E 023°39'0 0.0
2015-Jan-18 22:33N 70°38' E 023°39'0 0.4
2015-Jan-18 21:33N 70°38' E 023°40'0 0.0
2015-Jan-18 20:33N 70°38' E 023°40'1 1.5
2015-Jan-18 19:33N 70°39' E 023°38'1 1.0
2015-Jan-18 18:33N 70°40' E 023°40'5 0.1
2015-Jan-17 08:16N 70°45' E 023°38'5 6.8
2015-Jan-17 07:33N 70°40' E 023°40'  

Dump ship's entire track history